Thomastown, Mississippi
Current Conditions -  °F | °C
As of 1:54 AM on Tuesday 27 Jan 2015 (Local Time) from KJAN Reporting Station
Clear Clear  
Wind Chill: 42°   Ceiling: Unl
Heat Index: 44°   Visibility: 10mi
Dew Point: 34°   Wind: 5mph
Humidity: 68%   Direction: 220°SW
Pressure: 30.01"   Gusts: NA
Location:  32.86°N, 89.67°W
Report Text: KJAN 270754Z AUTO 22004KT 10SM CLR 07/01 A3001 RMK AO2 SLP162 T00670011
Loading
Personal Weather Stations






























Interactive Weather Map New forecast layout! Learn more

10-Day Weather Forecast

Advertisements
Track Severe Weather on mobile